CheckWX is a tool to help pilots better visualize weather data.  It is not intended as a substitute for an official pre-flight weather briefing.

16:57:38 UTC

KAIA TAF
Alliance Municipal Airport
Alliance, Nebraska, USA
KAIA 181138Z 1812/1912 07005KT P6SM BKN015 FM181700 13010KT P6SM SCT008 BKN025 FM181900 15010KT P6SM VCTS SCT020 BKN050CB FM182100 15010KT 5SM -TSRA BKN020 OVC040CB FM190200 16010KT P6SM SCT020 OVC050 FM190900 20005KT P6SM OVC015

Jun-18@
12:00 UTC

Jun-18 @ 12:00 UTC

Jun-18@
17:00 UTC

Jun-18 @ 17:00 UTC

KAIA 181138Z 1812/1912 07005KT P6SM BKN015
Wind
  • 070° at 5 KTS
Cloud Levels
  • Broken at 1,500' AGL

Jun-18@
17:00 UTC

Jun-18 @ 17:00 UTC

Jun-18@
19:00 UTC

Jun-18 @ 19:00 UTC

FM181700 13010KT P6SM SCT008 BKN025

From

From Standard forecast or significant change

Wind
  • 130° at 10 KTS
Cloud Levels
  • Scattered at 800' AGL
  • Broken at 2,500' AGL

Jun-18@
19:00 UTC

Jun-18 @ 19:00 UTC

Jun-18@
21:00 UTC

Jun-18 @ 21:00 UTC

FM181900 15010KT P6SM VCTS SCT020 BKN050CB

From

From Standard forecast or significant change

Wind
  • 150° at 10 KTS
Conditions
Area Thunderstorm
Cloud Levels
  • Scattered at 2,000' AGL
  • Broken at 5,000' AGL

Jun-18@
21:00 UTC

Jun-18 @ 21:00 UTC

Jun-19@
02:00 UTC

Jun-19 @ 02:00 UTC

FM182100 15010KT 5SM -TSRA BKN020 OVC040CB

From

From Standard forecast or significant change

Wind
  • 150° at 10 KTS
Conditions
Light Thunderstorm, Light Rain
Cloud Levels
  • Broken at 2,000' AGL
  • Overcast at 4,000' AGL

Jun-19@
02:00 UTC

Jun-19 @ 02:00 UTC

Jun-19@
09:00 UTC

Jun-19 @ 09:00 UTC

FM190200 16010KT P6SM SCT020 OVC050

From

From Standard forecast or significant change

Wind
  • 160° at 10 KTS
Cloud Levels
  • Scattered at 2,000' AGL
  • Overcast at 5,000' AGL

Jun-19@
09:00 UTC

Jun-19 @ 09:00 UTC

Jun-19@
12:00 UTC

Jun-19 @ 12:00 UTC

FM190900 20005KT P6SM OVC015

From

From Standard forecast or significant change

Wind
  • 200° at 5 KTS
Cloud Levels
  • Overcast at 1,500' AGL